createdAt,value
2019-03-26T00:00:37.321Z,33.50
2019-03-26T00:03:05.885Z,33.40
2019-03-26T00:05:34.310Z,34.20
2019-03-26T00:08:02.858Z,34.20
2019-03-26T00:10:31.278Z,34.40
2019-03-26T00:12:59.910Z,33.50
2019-03-26T00:15:28.495Z,33.40
2019-03-26T00:17:56.948Z,33.90
2019-03-26T00:20:25.360Z,35.10
2019-03-26T00:22:53.993Z,34.40
2019-03-26T00:25:22.558Z,34.70
2019-03-26T00:27:50.981Z,35.60
2019-03-26T00:30:19.472Z,34.50
2019-03-26T00:32:48.040Z,34.00
2019-03-26T00:35:16.484Z,34.00
2019-03-26T00:37:44.965Z,34.60
2019-03-26T00:40:13.532Z,35.90
2019-03-26T00:42:42.036Z,37.00
2019-03-26T00:45:11.444Z,36.80
2019-03-26T00:47:39.953Z,35.90
2019-03-26T00:50:08.386Z,35.30
2019-03-26T00:52:36.878Z,34.30
2019-03-26T00:55:07.130Z,33.20
2019-03-26T00:57:35.558Z,32.50
2019-03-26T01:00:06.067Z,33.90
2019-03-26T01:02:34.486Z,35.00
2019-03-26T01:05:02.911Z,34.50
2019-03-26T01:07:31.402Z,33.00
2019-03-26T01:09:59.827Z,31.80
2019-03-26T01:12:31.113Z,31.60
2019-03-26T01:14:58.364Z,30.50
2019-03-26T01:17:26.858Z,29.50
2019-03-26T01:19:55.285Z,30.50
2019-03-26T01:22:23.771Z,31.30
2019-03-26T01:24:52.198Z,30.70
2019-03-26T01:27:20.754Z,30.50
2019-03-26T01:29:49.224Z,29.60
2019-03-26T01:32:17.667Z,28.80
2019-03-26T01:34:46.494Z,29.00
2019-03-26T01:37:15.124Z,29.80
2019-03-26T01:39:43.527Z,31.30
2019-03-26T01:42:12.028Z,30.80
2019-03-26T01:44:40.507Z,30.30
2019-03-26T01:47:09.935Z,32.10
2019-03-26T01:49:38.341Z,32.70
2019-03-26T01:52:06.888Z,33.10
2019-03-26T01:54:35.311Z,33.30
2019-03-26T01:57:03.710Z,32.80
2019-03-26T01:59:32.323Z,33.30
2019-03-26T02:02:00.889Z,31.70
2019-03-26T02:04:29.304Z,31.80
2019-03-26T02:06:57.871Z,32.00
2019-03-26T02:09:26.294Z,33.50
2019-03-26T02:11:54.779Z,33.10
2019-03-26T02:14:23.331Z,33.90
2019-03-26T02:16:51.864Z,33.90
2019-03-26T02:19:20.281Z,34.60
2019-03-26T02:21:48.761Z,33.40
2019-03-26T02:24:17.310Z,31.40
2019-03-26T02:26:45.810Z,30.30
2019-03-26T02:29:14.398Z,29.80
2019-03-26T02:31:43.064Z,29.60
2019-03-26T02:34:11.478Z,29.40
2019-03-26T02:36:40.067Z,29.30
2019-03-26T02:39:08.550Z,29.60
2019-03-26T02:41:38.131Z,29.20
2019-03-26T02:44:07.011Z,28.70
2019-03-26T02:46:35.567Z,28.20
2019-03-26T02:49:05.000Z,28.50
2019-03-26T02:51:33.627Z,28.70
2019-03-26T02:54:02.171Z,30.20
2019-03-26T02:56:30.657Z,29.70
2019-03-26T02:58:59.276Z,29.10
2019-03-26T03:01:27.898Z,28.40
2019-03-26T03:03:56.494Z,28.10
2019-03-26T03:06:25.007Z,28.60
2019-03-26T03:08:53.593Z,27.80
2019-03-26T03:11:22.129Z,28.10
2019-03-26T03:13:50.753Z,30.40
2019-03-26T03:16:19.308Z,30.80
2019-03-26T03:18:47.872Z,33.00
2019-03-26T03:21:16.516Z,32.50
2019-03-26T03:23:44.978Z,31.70
2019-03-26T03:26:13.552Z,32.20
2019-03-26T03:28:42.177Z,30.30
2019-03-26T03:31:10.702Z,30.10
2019-03-26T03:33:39.262Z,29.40
2019-03-26T03:36:07.720Z,29.20
2019-03-26T03:38:36.146Z,28.40
2019-03-26T03:41:04.777Z,27.90
2019-03-26T03:43:33.409Z,28.10
2019-03-26T03:46:01.795Z,29.00
2019-03-26T03:48:30.281Z,28.90
2019-03-26T03:50:58.834Z,28.80
2019-03-26T03:53:27.338Z,28.70
2019-03-26T03:55:56.699Z,27.70
2019-03-26T03:58:25.246Z,27.00
2019-03-26T04:00:53.729Z,27.20
2019-03-26T04:03:22.156Z,27.30
2019-03-26T04:06:07.743Z,28.20
2019-03-26T04:08:20.898Z,28.70
2019-03-26T04:10:49.446Z,30.30
2019-03-26T04:13:18.012Z,31.90
2019-03-26T04:15:46.577Z,31.70
2019-03-26T04:18:27.787Z,32.60
2019-03-26T04:20:56.250Z,32.50
2019-03-26T04:23:24.742Z,32.60
2019-03-26T04:25:53.210Z,32.20
2019-03-26T04:28:21.772Z,31.90
2019-03-26T04:30:50.280Z,32.80
2019-03-26T04:33:18.869Z,33.60
2019-03-26T04:35:47.420Z,33.00
2019-03-26T04:38:16.055Z,33.30
2019-03-26T04:40:44.723Z,33.90
2019-03-26T04:43:13.303Z,36.00
2019-03-26T04:45:41.727Z,35.30
2019-03-26T04:48:10.270Z,34.10
2019-03-26T04:50:38.765Z,34.80
2019-03-26T04:53:07.309Z,32.50
2019-03-26T04:55:35.927Z,35.50
2019-03-26T04:58:04.494Z,36.40
2019-03-26T05:00:33.010Z,35.20
2019-03-26T05:03:01.558Z,35.90
2019-03-26T05:05:30.037Z,35.10
2019-03-26T05:07:58.546Z,33.10
2019-03-26T05:10:27.032Z,32.80
2019-03-26T05:12:55.503Z,33.50
2019-03-26T05:15:24.073Z,34.70
2019-03-26T05:17:52.682Z,34.90
2019-03-26T05:20:21.200Z,34.80
2019-03-26T05:22:49.768Z,36.10
2019-03-26T05:25:18.357Z,37.90
2019-03-26T05:27:46.839Z,36.00
2019-03-26T05:30:15.432Z,37.50
2019-03-26T05:32:44.011Z,36.90
2019-03-26T05:35:12.424Z,34.30
2019-03-26T05:37:41.045Z,33.80
2019-03-26T05:40:10.570Z,34.60
2019-03-26T05:42:39.236Z,34.50
2019-03-26T05:45:08.676Z,35.30
2019-03-26T05:47:37.251Z,36.40
2019-03-26T05:50:07.384Z,36.80
2019-03-26T05:52:36.035Z,36.50
2019-03-26T05:55:06.954Z,35.20
2019-03-26T05:57:36.537Z,33.00
2019-03-26T06:00:10.724Z,31.40
2019-03-26T06:02:39.278Z,31.30
2019-03-26T06:05:07.843Z,30.80
2019-03-26T06:07:36.323Z,30.30
2019-03-26T06:10:09.233Z,29.30
2019-03-26T06:12:37.724Z,30.20
2019-03-26T06:15:09.413Z,31.80
2019-03-26T06:17:37.990Z,31.00
2019-03-26T06:20:07.513Z,29.90
2019-03-26T06:22:38.361Z,29.80
2019-03-26T06:25:07.623Z,29.80
2019-03-26T06:27:36.235Z,31.50
2019-03-26T06:30:08.147Z,34.10
2019-03-26T06:32:37.997Z,33.60
2019-03-26T06:35:08.182Z,31.70
2019-03-26T06:37:36.843Z,31.30
2019-03-26T06:40:10.966Z,32.30
2019-03-26T06:42:39.500Z,30.40
2019-03-26T06:45:09.467Z,29.90
2019-03-26T06:47:37.947Z,30.80
2019-03-26T06:50:08.738Z,29.20
2019-03-26T06:52:37.252Z,28.80
2019-03-26T06:55:07.709Z,31.50
2019-03-26T06:57:36.755Z,34.60
2019-03-26T07:00:07.518Z,35.50
2019-03-26T07:02:38.947Z,37.40
2019-03-26T07:05:07.581Z,41.60
2019-03-26T07:07:36.146Z,40.00
2019-03-26T07:10:07.033Z,38.60
2019-03-26T07:12:35.715Z,38.70
2019-03-26T07:15:05.970Z,35.30
2019-03-26T07:20:02.854Z,41.80
2019-03-26T07:24:59.663Z,43.00
2019-03-26T07:27:28.211Z,40.00
2019-03-26T07:29:56.862Z,36.80
2019-03-26T07:32:25.495Z,37.90
2019-03-26T07:34:56.314Z,38.40
2019-03-26T07:37:24.816Z,38.50
2019-03-26T07:39:53.381Z,37.70
2019-03-26T07:42:22.063Z,37.50
2019-03-26T07:44:50.631Z,36.70
2019-03-26T07:47:19.200Z,37.30
2019-03-26T07:49:47.842Z,36.30
2019-03-26T07:52:16.330Z,36.40
2019-03-26T07:54:44.895Z,37.10
2019-03-26T07:57:13.451Z,37.70
2019-03-26T07:59:42.351Z,40.00
2019-03-26T08:02:13.530Z,40.00
2019-03-26T08:07:10.517Z,41.60
2019-03-26T08:09:39.075Z,41.30
2019-03-26T08:12:07.610Z,41.50
2019-03-26T08:17:04.507Z,44.10
2019-03-26T08:19:33.166Z,43.80
2019-03-26T08:22:02.780Z,45.60
2019-03-26T08:29:28.197Z,45.90
2019-03-26T08:31:56.769Z,44.30
2019-03-26T08:34:25.451Z,44.40
2019-03-26T08:36:53.946Z,42.60
2019-03-26T08:39:22.519Z,41.10
2019-03-26T08:41:51.121Z,38.80
2019-03-26T08:44:19.708Z,38.20
2019-03-26T08:46:48.179Z,37.60
2019-03-26T08:51:45.046Z,37.10
2019-03-26T08:59:10.237Z,62.70
2019-03-26T09:01:38.747Z,63.60
2019-03-26T09:04:07.340Z,64.90
2019-03-26T09:06:35.953Z,57.30
2019-03-26T09:09:07.182Z,58.40
2019-03-26T09:36:19.731Z,42.70
2019-03-26T09:41:16.956Z,38.20
2019-03-26T09:43:49.420Z,38.50
2019-03-26T09:46:17.836Z,36.00
2019-03-26T09:48:46.468Z,37.00
2019-03-26T09:57:56.556Z,61.50
2019-03-26T10:00:25.069Z,60.50
2019-03-26T10:02:53.807Z,64.00
2019-03-26T10:07:50.570Z,66.50
2019-03-26T10:10:19.255Z,64.40
2019-03-26T10:12:47.758Z,52.50
2019-03-26T12:26:40.993Z,76.90
2019-03-26T12:56:26.547Z,78.40
2019-03-26T12:58:55.122Z,58.80
2019-03-26T13:08:48.770Z,78.90
2019-03-26T13:11:17.387Z,80.20
2019-03-26T13:13:45.983Z,78.40
2019-03-26T13:21:11.326Z,59.70
2019-03-26T13:26:08.469Z,74.90
2019-03-26T13:28:38.491Z,75.10
2019-03-26T13:36:03.849Z,76.50
2019-03-26T13:38:32.535Z,74.00
2019-03-26T13:41:01.322Z,70.50
2019-03-26T13:43:30.126Z,74.40
2019-03-26T13:45:58.826Z,73.90
2019-03-26T13:48:27.398Z,78.20
2019-03-26T13:53:24.307Z,79.70
2019-03-26T13:58:21.373Z,78.60
2019-03-26T14:00:49.958Z,64.30
2019-03-26T14:03:18.687Z,81.00
2019-03-26T14:57:49.710Z,78.90
2019-03-26T15:00:18.507Z,80.00
2019-03-26T15:05:15.573Z,80.30
2019-03-26T15:10:12.335Z,82.70
2019-03-26T15:12:40.977Z,83.20
2019-03-26T15:22:34.443Z,83.70
2019-03-26T15:32:28.114Z,80.90
2019-03-26T15:37:25.067Z,78.80
2019-03-26T15:39:53.591Z,78.60
2019-03-26T15:42:22.537Z,79.10
2019-03-26T15:44:51.151Z,56.50
2019-03-26T15:47:19.839Z,78.90
2019-03-26T15:49:49.788Z,80.80
2019-03-26T15:52:18.418Z,80.80
2019-03-26T15:57:15.616Z,83.80
2019-03-26T15:59:44.439Z,84.80
2019-03-26T16:02:13.015Z,84.20
2019-03-26T16:09:38.304Z,84.80
2019-03-26T16:12:06.975Z,64.60
2019-03-26T16:14:35.649Z,66.10
2019-03-26T16:19:36.402Z,84.60
2019-03-26T16:22:03.603Z,81.80
2019-03-26T16:24:32.298Z,80.30
2019-03-26T16:27:01.200Z,79.50
2019-03-26T16:29:29.748Z,78.90
2019-03-26T16:31:58.696Z,80.10
2019-03-26T16:36:59.860Z,85.00
2019-03-26T16:46:52.010Z,81.50
2019-03-26T16:49:25.010Z,75.40
2019-03-26T16:51:54.728Z,79.10
2019-03-26T16:56:54.491Z,80.00
2019-03-26T17:01:51.628Z,62.00
2019-03-26T17:04:20.304Z,83.00
2019-03-26T17:06:49.027Z,83.50
2019-03-26T17:11:46.408Z,82.80
2019-03-26T17:14:15.287Z,81.70
2019-03-26T17:19:13.287Z,83.40
2019-03-26T17:21:41.922Z,82.30
2019-03-26T17:24:10.702Z,79.80
2019-03-26T17:26:39.796Z,81.70
2019-03-26T17:31:37.514Z,82.20
2019-03-26T17:34:06.480Z,81.30
2019-03-26T17:36:35.616Z,80.00
2019-03-26T17:39:07.809Z,81.60
2019-03-26T17:41:36.862Z,81.00
2019-03-26T17:44:06.362Z,78.50
2019-03-26T17:46:35.247Z,79.70
2019-03-26T17:49:04.657Z,78.70
2019-03-26T17:51:33.370Z,79.00
2019-03-26T17:56:37.492Z,39.80
2019-03-26T17:59:06.203Z,35.10
2019-03-26T18:01:35.095Z,35.50
2019-03-26T18:04:03.804Z,34.30
2019-03-26T18:06:32.682Z,33.90
2019-03-26T18:09:01.595Z,33.20
2019-03-26T18:11:33.110Z,36.90
2019-03-26T18:14:02.297Z,38.50
2019-03-26T18:16:31.797Z,38.20
2019-03-26T18:19:01.047Z,38.10
2019-03-26T18:21:29.834Z,36.20
2019-03-26T18:23:58.578Z,37.20
2019-03-26T18:26:27.843Z,34.80
2019-03-26T18:28:56.631Z,34.30
2019-03-26T18:31:25.413Z,33.50
2019-03-26T18:33:55.461Z,32.40
2019-03-26T18:36:25.608Z,31.80
2019-03-26T18:38:54.430Z,32.00
2019-03-26T18:41:23.521Z,30.40
2019-03-26T18:43:52.791Z,31.90
2019-03-26T18:46:21.626Z,31.50
2019-03-26T18:48:50.935Z,31.00
2019-03-26T18:51:19.978Z,33.20
2019-03-26T18:53:48.974Z,34.20
2019-03-26T19:08:43.266Z,50.40
2019-03-26T19:11:13.640Z,47.20
2019-03-26T19:21:58.764Z,59.50
2019-03-26T19:24:28.356Z,67.00
2019-03-26T19:26:57.615Z,66.50
2019-03-26T19:31:57.037Z,65.10
2019-03-26T19:34:26.148Z,61.90
2019-03-26T19:44:22.843Z,46.00
2019-03-26T19:46:52.019Z,57.00
2019-03-26T19:49:21.205Z,56.20
2019-03-26T19:51:50.337Z,57.00
2019-03-26T19:54:40.730Z,59.70
2019-03-26T19:57:12.423Z,65.90
2019-03-26T20:04:40.419Z,63.10
2019-03-26T20:07:11.172Z,66.80
2019-03-26T20:09:40.737Z,63.70
2019-03-26T20:14:38.308Z,53.90
2019-03-26T20:19:36.401Z,59.40
2019-03-26T20:24:34.109Z,65.10
2019-03-26T20:29:34.329Z,60.90
2019-03-26T20:34:31.418Z,51.00
2019-03-26T20:37:00.403Z,55.90
2019-03-26T20:39:29.186Z,53.10
2019-03-26T20:41:57.988Z,44.90
2019-03-26T20:44:30.479Z,51.60
2019-03-26T20:46:59.298Z,51.90
2019-03-26T20:49:28.034Z,45.10
2019-03-26T20:51:56.696Z,55.70
2019-03-26T20:56:53.904Z,49.60
2019-03-26T21:01:51.119Z,53.20
2019-03-26T21:14:18.864Z,45.20
2019-03-26T21:19:16.175Z,38.50
2019-03-26T21:21:44.889Z,48.70
2019-03-26T21:24:13.743Z,46.20
2019-03-26T21:31:39.041Z,48.90
2019-03-26T21:36:38.057Z,44.50
2019-03-26T21:39:06.759Z,46.00
2019-03-26T21:44:04.887Z,32.50
2019-03-26T21:46:35.511Z,44.00
2019-03-26T21:49:04.557Z,42.00
2019-03-26T21:51:33.383Z,42.80
2019-03-26T21:54:02.003Z,39.40
2019-03-26T21:58:59.868Z,39.40
2019-03-26T22:01:28.493Z,37.70
2019-03-26T22:03:57.176Z,46.50
2019-03-26T22:08:54.480Z,33.90
2019-03-26T22:16:21.417Z,45.10
2019-03-26T22:18:50.004Z,44.40
2019-03-26T22:21:18.634Z,42.80
2019-03-26T22:23:47.562Z,41.10
2019-03-26T22:28:44.539Z,41.90
2019-03-26T22:31:13.182Z,37.90
2019-03-26T22:33:41.798Z,43.50
2019-03-26T22:38:38.760Z,44.00
2019-03-26T22:43:36.153Z,55.10
2019-03-26T22:46:04.637Z,50.60
2019-03-26T22:51:01.999Z,49.50
2019-03-26T22:53:30.561Z,46.80
2019-03-26T22:55:59.155Z,42.60
2019-03-26T22:58:27.669Z,44.00
2019-03-26T23:03:25.480Z,45.80
2019-03-26T23:05:54.260Z,44.00
2019-03-26T23:10:51.671Z,44.40
2019-03-26T23:13:20.185Z,45.80
2019-03-26T23:15:48.861Z,45.50
2019-03-26T23:18:17.474Z,45.80
2019-03-26T23:20:46.041Z,44.30
2019-03-26T23:23:15.028Z,41.10
2019-03-26T23:25:43.511Z,44.00
2019-03-26T23:28:12.067Z,40.10
2019-03-26T23:35:37.223Z,46.80
2019-03-26T23:38:05.789Z,42.90
2019-03-26T23:40:34.299Z,46.60
2019-03-26T23:43:02.929Z,42.50
2019-03-26T23:45:31.641Z,44.20
2019-03-26T23:48:00.217Z,47.10
2019-03-26T23:50:28.706Z,47.70
2019-03-26T23:52:57.322Z,46.70
2019-03-26T23:55:25.896Z,43.90
2019-03-26T23:57:54.526Z,45.20
